Terminal Aerodrome Forecast
Issued by NWS

Home | Current Version | Previous Version | Graphics & Text | Print | Product List | Glossary On
Versions: 1 2 3 4 5 6 7 8 9 10 11 12 13 14 15 16 17
000
FTUS43 KGRB 231128
TAFATW
TAF
KATW 231128Z 2312/2412 29008KT P6SM SCT090
     FM231600 28012G22KT P6SM SCT045
     FM232300 29007KT P6SM SCT060=

USA.gov is the U.S. government's official web portal to all federal, state and local government web resources and services.